Time;durP1;ratioP1;P1;durP2;ratioP2;P2;SDS_P1;SDS_P2;PMS_P1;PMS_P2;Temp;Humidity;BMP_temperature;BMP_pressure;BME280_temperature;BME280_humidity;BME280_pressure;Samples;Min_cycle;Max_cycle;Signal;HPM_P1;HPM_P2
2022/09/04 00:01:56;;;;;;;0.40;0.40;;;16.60;95.40;;;;;;5075953;28;20399;-81
2022/09/04 00:04:41;;;;;;;0.40;0.40;;;16.70;95.10;;;;;;5075304;28;20134;-81
2022/09/04 00:07:27;;;;;;;0.40;0.40;;;16.70;95.20;;;;;;5074837;28;20393;-80
2022/09/04 00:09:57;;;;;;;0.40;0.40;;;16.60;95.30;;;;;;5075644;28;20084;-81
2022/09/04 00:12:32;;;;;;;0.40;0.40;;;16.60;95.40;;;;;;5074577;28;20047;-80
2022/09/04 00:15:09;;;;;;;0.40;0.40;;;16.50;95.70;;;;;;5061853;28;20126;-81
2022/09/04 00:17:39;;;;;;;0.40;0.40;;;16.40;96.00;;;;;;5076215;28;20105;-80
2022/09/04 00:20:28;;;;;;;0.40;0.40;;;16.50;95.60;;;;;;5076987;28;20397;-81
2022/09/04 00:23:00;;;;;;;0.40;0.40;;;16.40;95.80;;;;;;5067332;28;20116;-80
2022/09/04 00:26:00;;;;;;;0.40;0.40;;;16.30;96.00;;;;;;5076442;28;20287;-80
2022/09/04 00:28:28;;;;;;;0.40;0.40;;;16.30;96.10;;;;;;5052773;28;20060;-80
2022/09/04 00:31:04;;;;;;;0.40;0.40;;;16.20;96.30;;;;;;5064813;28;20058;-81
2022/09/04 00:33:42;;;;;;;0.40;0.40;;;16.20;96.20;;;;;;5063826;28;20056;-81
2022/09/04 00:36:10;;;;;;;0.40;0.40;;;16.00;96.40;;;;;;5061624;28;20920;-80
2022/09/04 00:38:52;;;;;;;0.40;0.40;;;16.20;96.30;;;;;;5062785;28;20489;-81
2022/09/04 00:41:33;;;;;;;0.40;0.40;;;16.20;96.20;;;;;;5065963;28;20051;-80
2022/09/04 00:44:17;;;;;;;0.40;0.40;;;16.10;96.30;;;;;;5064344;28;20072;-81
2022/09/04 00:47:11;;;;;;;0.40;0.40;;;16.30;96.00;;;;;;5054866;28;20051;-80
2022/09/04 00:49:46;;;;;;;0.40;0.40;;;16.10;96.40;;;;;;5063069;28;20596;-81
2022/09/04 00:52:36;;;;;;;0.40;0.40;;;16.10;96.30;;;;;;5062702;28;20050;-80
2022/09/04 00:55:28;;;;;;;0.40;0.40;;;16.10;96.10;;;;;;5064447;28;20055;-81
2022/09/04 00:58:11;;;;;;;0.40;0.40;;;16.10;96.10;;;;;;5062110;28;20139;-80
2022/09/04 01:00:37;;;;;;;0.40;0.40;;;16.00;96.50;;;;;;5062236;28;20054;-80
2022/09/04 01:03:06;;;;;;;0.50;0.50;;;16.10;96.40;;;;;;5065183;28;20042;-80
2022/09/04 01:06:06;;;;;;;0.50;0.50;;;15.90;96.70;;;;;;5062683;28;20047;-81
2022/09/04 01:08:41;;;;;;;0.45;0.45;;;15.90;96.80;;;;;;5061704;28;20051;-81
2022/09/04 01:11:28;;;;;;;0.40;0.40;;;15.80;97.00;;;;;;5061901;28;20171;-81
2022/09/04 01:14:14;;;;;;;0.50;0.50;;;15.80;96.90;;;;;;5079580;28;20059;-81
2022/09/04 01:16:49;;;;;;;0.40;0.40;;;15.80;97.10;;;;;;4991158;28;20511;-81
2022/09/04 01:19:30;;;;;;;0.40;0.40;;;15.80;96.90;;;;;;5048573;28;20296;-81
2022/09/04 01:22:29;;;;;;;0.50;0.50;;;15.70;97.30;;;;;;5042560;28;20040;-80
2022/09/04 01:25:25;;;;;;;0.40;0.40;;;15.70;97.10;;;;;;5028585;28;20079;-80
2022/09/04 01:28:17;;;;;;;0.50;0.50;;;15.70;97.20;;;;;;5048039;28;20430;-80
2022/09/04 01:31:04;;;;;;;0.50;0.50;;;15.50;97.70;;;;;;5055027;28;20039;-80
2022/09/04 01:34:17;;;;;;;0.50;0.50;;;15.60;97.50;;;;;;5035424;28;20104;-81
2022/09/04 01:37:11;;;;;;;0.40;0.40;;;15.50;97.60;;;;;;5006576;28;20500;-81
2022/09/04 01:39:41;;;;;;;0.40;0.40;;;15.50;97.70;;;;;;5019680;28;20914;-80
2022/09/04 01:42:41;;;;;;;0.50;0.50;;;15.40;97.80;;;;;;5049891;28;20516;-80
2022/09/04 01:45:07;;;;;;;0.50;0.50;;;15.40;97.90;;;;;;5061664;28;20154;-81
2022/09/04 01:47:48;;;;;;;0.50;0.50;;;15.30;98.10;;;;;;5050606;28;20059;-80
2022/09/04 01:50:25;;;;;;;0.50;0.50;;;15.30;98.30;;;;;;5061989;28;20051;-80
2022/09/04 01:53:19;;;;;;;0.50;0.50;;;15.20;98.40;;;;;;5070920;28;20054;-80
2022/09/04 01:56:24;;;;;;;0.50;0.50;;;15.30;98.20;;;;;;5066356;28;20328;-80
2022/09/04 01:59:07;;;;;;;0.45;0.45;;;15.20;98.30;;;;;;5065218;28;20045;-81
2022/09/04 02:02:02;;;;;;;0.40;0.40;;;15.20;98.50;;;;;;5064936;28;20531;-80
2022/09/04 02:04:43;;;;;;;0.50;0.50;;;15.20;98.60;;;;;;5064195;28;20058;-81
2022/09/04 02:07:34;;;;;;;0.50;0.50;;;15.20;98.70;;;;;;5065786;28;20040;-80
2022/09/04 02:10:20;;;;;;;0.40;0.40;;;15.20;98.60;;;;;;5064665;28;20041;-80
2022/09/04 02:13:28;;;;;;;0.50;0.50;;;15.10;98.90;;;;;;5067154;28;20040;-80
2022/09/04 02:16:41;;;;;;;0.50;0.50;;;15.10;99.10;;;;;;5008847;28;20132;-81
2022/09/04 02:19:19;;;;;;;0.50;0.50;;;15.10;99.00;;;;;;5063429;28;20074;-81
2022/09/04 02:22:19;;;;;;;0.40;0.40;;;15.00;99.20;;;;;;5064169;28;20055;-80
2022/09/04 02:24:59;;;;;;;0.50;0.50;;;14.90;99.60;;;;;;5064641;28;20874;-80
2022/09/04 02:27:41;;;;;;;0.50;0.50;;;15.00;99.40;;;;;;5062626;28;20047;-81
2022/09/04 02:30:15;;;;;;;0.50;0.50;;;15.00;99.40;;;;;;5066798;28;20071;-80
2022/09/04 02:33:07;;;;;;;0.50;0.50;;;15.00;99.30;;;;;;5064465;28;20052;-81
2022/09/04 02:35:56;;;;;;;0.50;0.50;;;14.90;99.60;;;;;;5080402;28;20209;-80
2022/09/04 02:38:37;;;;;;;0.40;0.40;;;14.80;99.90;;;;;;5063993;28;20044;-81
2022/09/04 02:41:15;;;;;;;0.50;0.50;;;14.80;99.90;;;;;;5069657;28;20109;-80
2022/09/04 02:43:56;;;;;;;0.45;0.45;;;14.70;99.90;;;;;;5059829;28;20646;-80
2022/09/04 02:46:44;;;;;;;0.45;0.45;;;14.70;99.90;;;;;;5071534;28;20047;-80
2022/09/04 02:49:12;;;;;;;0.50;0.50;;;14.70;99.90;;;;;;5062112;28;20050;-80
2022/09/04 02:52:00;;;;;;;0.40;0.40;;;14.70;99.90;;;;;;5082145;28;20307;-80
2022/09/04 02:54:58;;;;;;;0.60;0.60;;;14.80;99.90;;;;;;5081003;28;20069;-81
2022/09/04 02:58:16;;;;;;;0.50;0.50;;;14.60;99.90;;;;;;5039317;28;20081;-80
2022/09/04 03:01:06;;;;;;;0.50;0.50;;;14.60;99.90;;;;;;5080458;28;20067;-80
2022/09/04 03:03:50;;;;;;;0.50;0.50;;;14.50;99.90;;;;;;5078721;28;20047;-80
2022/09/04 03:06:39;;;;;;;0.50;0.50;;;14.40;99.90;;;;;;5074628;28;20053;-80
2022/09/04 03:09:11;;;;;;;0.40;0.40;;;14.40;99.90;;;;;;5066557;28;20152;-80
2022/09/04 03:11:42;;;;;;;0.50;0.50;;;14.40;99.90;;;;;;5061399;28;20046;-80
2022/09/04 03:14:45;;;;;;;0.50;0.50;;;14.40;99.90;;;;;;5064767;28;20093;-80
2022/09/04 03:17:20;;;;;;;0.50;0.50;;;14.40;99.90;;;;;;5063608;28;20059;-80
2022/09/04 03:20:06;;;;;;;0.50;0.50;;;14.30;99.90;;;;;;5065478;28;20142;-81
2022/09/04 03:23:06;;;;;;;0.50;0.50;;;14.30;99.90;;;;;;5062204;28;20065;-81
2022/09/04 03:25:38;;;;;;;0.50;0.50;;;14.30;99.90;;;;;;5062438;28;20052;-81
2022/09/04 03:28:10;;;;;;;0.50;0.50;;;14.20;99.90;;;;;;5077664;28;20394;-81
2022/09/04 03:30:38;;;;;;;0.50;0.50;;;14.10;99.90;;;;;;5047327;28;20096;-81
2022/09/04 03:33:31;;;;;;;0.50;0.50;;;14.10;99.90;;;;;;5082584;28;20043;-81
2022/09/04 03:36:11;;;;;;;0.50;0.50;;;14.00;99.90;;;;;;5063338;28;20050;-81
2022/09/04 03:38:52;;;;;;;0.50;0.50;;;14.30;99.90;;;;;;5055475;28;20390;-81
2022/09/04 03:41:41;;;;;;;0.60;0.60;;;14.30;99.90;;;;;;5063817;28;20737;-81
2022/09/04 03:44:09;;;;;;;0.50;0.50;;;14.10;99.90;;;;;;5071429;28;20047;-81
2022/09/04 03:46:53;;;;;;;0.50;0.50;;;14.10;99.90;;;;;;5063330;28;20146;-81
2022/09/04 03:49:41;;;;;;;0.50;0.50;;;14.00;99.90;;;;;;5062570;28;21064;-81
2022/09/04 03:52:49;;;;;;;0.50;0.50;;;14.00;99.90;;;;;;5064854;28;20058;-81
2022/09/04 03:55:41;;;;;;;0.57;0.57;;;14.00;99.90;;;;;;5062082;28;20035;-81
2022/09/04 03:58:36;;;;;;;0.60;0.60;;;13.90;99.90;;;;;;5061454;28;20051;-81
2022/09/04 04:01:26;;;;;;;0.60;0.60;;;13.90;99.90;;;;;;5082783;28;20762;-81
2022/09/04 04:04:34;;;;;;;0.50;0.50;;;13.90;99.90;;;;;;5082265;28;20062;-81
2022/09/04 04:07:16;;;;;;;0.50;0.50;;;14.00;99.90;;;;;;5040582;28;20055;-81
2022/09/04 04:10:05;;;;;;;0.50;0.50;;;13.90;99.90;;;;;;5062163;28;20131;-81
2022/09/04 04:13:11;;;;;;;0.60;0.60;;;13.90;99.90;;;;;;5059811;28;20059;-80
2022/09/04 04:16:02;;;;;;;0.50;0.50;;;13.90;99.90;;;;;;5061975;28;20047;-81
2022/09/04 04:18:53;;;;;;;0.52;0.52;;;13.80;99.90;;;;;;5060533;28;20050;-81
2022/09/04 04:21:36;;;;;;;0.60;0.60;;;13.70;99.90;;;;;;5039811;28;20059;-82
2022/09/04 04:24:41;;;;;;;0.50;0.50;;;13.70;99.90;;;;;;5073863;28;20450;-81
2022/09/04 04:27:20;;;;;;;0.50;0.50;;;13.80;99.90;;;;;;5056634;28;20520;-81
2022/09/04 04:30:11;;;;;;;0.50;0.50;;;13.70;99.90;;;;;;5060792;28;20043;-81
2022/09/04 04:33:03;;;;;;;0.50;0.50;;;13.80;99.90;;;;;;5075495;28;20043;-81
2022/09/04 04:36:05;;;;;;;0.50;0.50;;;13.70;99.90;;;;;;5060982;28;20056;-82
2022/09/04 04:38:59;;;;;;;0.60;0.60;;;13.60;99.90;;;;;;5061996;28;20055;-81
2022/09/04 04:42:03;;;;;;;0.60;0.60;;;13.50;99.90;;;;;;5064312;28;20036;-82
2022/09/04 04:47:51;;;;;;;0.60;0.60;;;13.50;99.90;;;;;;5062048;28;20404;-81
2022/09/04 04:50:54;;;;;;;0.60;0.60;;;13.50;99.90;;;;;;5062227;28;20902;-81
2022/09/04 04:54:08;;;;;;;0.60;0.60;;;13.50;99.90;;;;;;5057765;28;20063;-80
2022/09/04 04:56:56;;;;;;;0.55;0.55;;;13.50;99.90;;;;;;5012387;28;20068;-81
2022/09/04 04:59:29;;;;;;;0.50;0.50;;;13.50;99.90;;;;;;5082217;28;20130;-81
2022/09/04 05:02:20;;;;;;;0.50;0.50;;;13.50;99.90;;;;;;5064264;28;20167;-80
2022/09/04 05:05:11;;;;;;;0.50;0.50;;;13.40;99.90;;;;;;5079466;28;20043;-81
2022/09/04 05:07:59;;;;;;;0.60;0.60;;;13.50;99.90;;;;;;5061321;28;20052;-82
2022/09/04 05:10:38;;;;;;;0.50;0.50;;;13.30;99.90;;;;;;5065404;28;20072;-81
2022/09/04 05:13:39;;;;;;;0.50;0.50;;;13.50;99.90;;;;;;5065062;28;20052;-82
2022/09/04 05:16:20;;;;;;;0.60;0.60;;;13.50;99.90;;;;;;5060856;28;20563;-81
2022/09/04 05:18:56;;;;;;;0.50;0.50;;;13.50;99.90;;;;;;5080244;28;20130;-81
2022/09/04 05:21:31;;;;;;;0.50;0.50;;;13.70;99.90;;;;;;5059074;28;20082;-81
2022/09/04 05:24:13;;;;;;;0.50;0.50;;;13.70;99.90;;;;;;5062238;28;20100;-81
2022/09/04 05:26:50;;;;;;;0.60;0.60;;;14.30;99.90;;;;;;5065263;28;20098;-80
2022/09/04 05:29:50;;;;;;;0.50;0.50;;;14.80;99.90;;;;;;5062551;28;20055;-81
2022/09/04 05:32:24;;;;;;;0.50;0.50;;;15.10;99.90;;;;;;5059616;28;20074;-80
2022/09/04 05:34:50;;;;;;;;;;;15.50;99.90;;;;;;5067494;28;20043;-80
2022/09/04 05:37:27;;;;;;;0.50;0.50;;;15.50;99.90;;;;;;5067869;28;19985;-82
2022/09/04 05:39:59;;;;;;;0.60;0.60;;;15.70;99.90;;;;;;5066707;28;20533;-80
2022/09/04 05:42:32;;;;;;;;;;;15.90;99.90;;;;;;5083413;28;20081;-81
2022/09/04 05:45:06;;;;;;;0.50;0.50;;;15.90;99.90;;;;;;5080539;28;19935;-82
2022/09/04 05:47:47;;;;;;;;;;;15.80;99.90;;;;;;5045888;28;20052;-81
2022/09/04 05:50:47;;;;;;;0.50;0.50;;;15.80;99.90;;;;;;5064477;28;19930;-81
2022/09/04 05:53:37;;;;;;;0.50;0.50;;;15.40;99.90;;;;;;5081841;28;20035;-81
2022/09/04 05:56:21;;;;;;;0.50;0.50;;;15.10;99.90;;;;;;5061387;28;20047;-81
2022/09/04 05:58:56;;;;;;;0.52;0.52;;;15.20;99.90;;;;;;5066135;28;20406;-81
2022/09/04 06:02:00;;;;;;;0.50;0.50;;;15.10;99.90;;;;;;5061647;28;20036;-82
2022/09/04 06:04:37;;;;;;;0.60;0.60;;;15.30;99.90;;;;;;5061782;28;20056;-81
2022/09/04 06:07:12;;;;;;;0.50;0.50;;;15.20;99.90;;;;;;5057901;28;20043;-82
2022/09/04 06:09:43;;;;;;;0.60;0.60;;;15.20;99.90;;;;;;5076709;28;20047;-81
2022/09/04 06:12:52;;;;;;;0.50;0.50;;;15.30;99.90;;;;;;5058231;28;20679;-82
2022/09/04 06:15:37;;;;;;;0.60;0.60;;;15.30;99.90;;;;;;5061370;28;20570;-81
2022/09/04 06:18:02;;;;;;;0.60;0.60;;;15.40;99.90;;;;;;5073061;28;20051;-82
2022/09/04 06:20:35;;;;;;;0.50;0.50;;;15.60;99.90;;;;;;5079920;28;20055;-81
2022/09/04 06:23:28;;;;;;;0.50;0.50;;;15.80;99.90;;;;;;5051364;28;20459;-81
2022/09/04 06:26:17;;;;;;;0.60;0.60;;;16.10;99.90;;;;;;5082462;28;20196;-81
2022/09/04 06:28:59;;;;;;;0.50;0.50;;;16.30;99.90;;;;;;5053416;28;20062;-81
2022/09/04 06:31:25;;;;;;;0.50;0.50;;;16.30;99.90;;;;;;5070526;28;20055;-81
2022/09/04 06:34:06;;;;;;;0.50;0.50;;;16.70;99.90;;;;;;5046378;28;20044;-81
2022/09/04 06:37:00;;;;;;;0.50;0.50;;;16.70;99.90;;;;;;5063675;28;20052;-81
2022/09/04 06:39:59;;;;;;;0.50;0.50;;;17.00;99.90;;;;;;5080872;28;20080;-80
2022/09/04 06:42:50;;;;;;;0.50;0.50;;;17.20;99.90;;;;;;5060894;28;20407;-81
2022/09/04 06:45:24;;;;;;;0.50;0.50;;;17.40;99.90;;;;;;5079510;28;20040;-82
2022/09/04 06:48:02;;;;;;;0.60;0.60;;;17.60;99.90;;;;;;5045726;28;20104;-82
2022/09/04 06:50:59;;;;;;;0.50;0.50;;;17.40;99.90;;;;;;5061385;28;20047;-81
2022/09/04 06:53:36;;;;;;;0.50;0.50;;;17.70;99.90;;;;;;5040734;28;20047;-81
2022/09/04 06:56:04;;;;;;;0.40;0.40;;;17.30;99.90;;;;;;5078355;28;20669;-82
2022/09/04 06:58:55;;;;;;;0.40;0.40;;;17.50;99.90;;;;;;5060620;28;20083;-83
2022/09/04 07:01:59;;;;;;;0.40;0.40;;;17.70;99.90;;;;;;5062023;28;20945;-83
2022/09/04 07:04:39;;;;;;;0.40;0.40;;;17.80;99.90;;;;;;5059089;28;20052;-81
2022/09/04 07:07:17;;;;;;;0.45;0.45;;;17.60;99.90;;;;;;5078892;28;20048;-80
2022/09/04 07:09:48;;;;;;;0.40;0.40;;;17.80;99.90;;;;;;5076716;28;20085;-82
2022/09/04 07:12:21;;;;;;;0.50;0.50;;;18.00;99.90;;;;;;5060484;28;20044;-83
2022/09/04 07:15:25;;;;;;;0.40;0.40;;;18.20;99.90;;;;;;5060914;28;20083;-82
2022/09/04 07:18:23;;;;;;;0.50;0.50;;;18.40;99.90;;;;;;5020689;28;20168;-81
2022/09/04 07:21:20;;;;;;;0.40;0.40;;;18.70;99.90;;;;;;4991331;28;20101;-81
2022/09/04 07:24:05;;;;;;;0.40;0.40;;;18.80;99.90;;;;;;5064658;28;20560;-82
2022/09/04 07:27:02;;;;;;;0.40;0.40;;;19.20;99.90;;;;;;5062244;28;20092;-84
2022/09/04 07:29:36;;;;;;;0.40;0.40;;;18.70;99.90;;;;;;5060349;28;20055;-83
2022/09/04 07:32:49;;;;;;;0.40;0.40;;;19.20;99.90;;;;;;5062567;28;20892;-81
2022/09/04 07:35:48;;;;;;;0.50;0.50;;;19.40;99.90;;;;;;5002917;28;20053;-81
2022/09/04 07:38:31;;;;;;;0.40;0.40;;;19.80;99.90;;;;;;5019752;28;20041;-82
2022/09/04 07:41:34;;;;;;;0.40;0.40;;;19.70;99.90;;;;;;5039112;28;20055;-81
2022/09/04 07:44:47;;;;;;;0.40;0.40;;;19.60;99.90;;;;;;5057362;28;20048;-81
2022/09/04 07:47:34;;;;;;;0.40;0.40;;;19.40;99.90;;;;;;5008052;28;20053;-81
2022/09/04 07:50:11;;;;;;;0.40;0.40;;;19.20;99.90;;;;;;5048405;28;20051;-82
2022/09/04 07:52:49;;;;;;;0.40;0.40;;;19.70;99.90;;;;;;5042888;28;20382;-82
2022/09/04 07:55:26;;;;;;;0.40;0.40;;;20.00;99.90;;;;;;5028105;28;20422;-82
2022/09/04 07:58:27;;;;;;;0.30;0.30;;;19.90;99.90;;;;;;5030128;28;20668;-82
2022/09/04 08:01:22;;;;;;;0.40;0.40;;;20.40;99.90;;;;;;5032336;28;20043;-81
2022/09/04 08:04:16;;;;;;;0.40;0.40;;;20.70;99.90;;;;;;5027868;28;20150;-81
2022/09/04 08:06:49;;;;;;;0.40;0.40;;;20.80;99.90;;;;;;5028698;28;20109;-82
2022/09/04 08:09:56;;;;;;;0.40;0.40;;;20.10;99.90;;;;;;5039850;28;20497;-82
2022/09/04 08:12:55;;;;;;;0.40;0.40;;;20.50;99.90;;;;;;4993452;28;20098;-80
2022/09/04 08:15:51;;;;;;;0.40;0.40;;;20.90;99.90;;;;;;5056801;28;20044;-82
2022/09/04 08:18:51;;;;;;;0.38;0.38;;;20.80;99.90;;;;;;5024100;28;20044;-83
2022/09/04 08:21:28;;;;;;;0.30;0.30;;;21.00;99.90;;;;;;5059283;28;20055;-82
2022/09/04 08:24:31;;;;;;;0.40;0.40;;;21.00;99.60;;;;;;5060884;28;20085;-83
2022/09/04 08:27:34;;;;;;;0.40;0.40;;;21.20;99.90;;;;;;5037823;28;21012;-80
2022/09/04 08:30:13;;;;;;;0.32;0.32;;;21.10;99.90;;;;;;5034197;28;20135;-83
2022/09/04 08:32:56;;;;;;;0.30;0.30;;;21.10;99.70;;;;;;5034429;28;20636;-83
2022/09/04 08:35:58;;;;;;;0.30;0.30;;;21.70;99.60;;;;;;5052975;28;20431;-83
2022/09/04 08:38:42;;;;;;;0.30;0.30;;;21.70;99.40;;;;;;5024859;28;20136;-83
2022/09/04 08:41:32;;;;;;;0.30;0.30;;;22.00;99.30;;;;;;5034262;28;20039;-82
2022/09/04 08:44:13;;;;;;;0.30;0.30;;;22.00;98.80;;;;;;5050922;28;21647;-83
2022/09/04 08:46:47;;;;;;;0.30;0.30;;;22.00;99.00;;;;;;5053241;28;20044;-81
2022/09/04 08:49:32;;;;;;;;;;;21.80;99.10;;;;;;5035675;28;20816;-83
2022/09/04 08:51:57;;;;;;;;;;;22.10;99.40;;;;;;5032725;28;19919;-84
2022/09/04 08:55:10;;;;;;;0.30;0.30;;;22.60;98.90;;;;;;5035233;28;19920;-83
2022/09/04 08:57:57;;;;;;;0.30;0.30;;;23.10;98.60;;;;;;5038075;28;20833;-83
2022/09/04 09:01:02;;;;;;;0.30;0.30;;;23.10;98.50;;;;;;5056716;28;20490;-82
2022/09/04 09:03:48;;;;;;;0.38;0.38;;;23.20;98.40;;;;;;5028714;28;20043;-83
2022/09/04 09:06:26;;;;;;;0.30;0.30;;;23.00;98.00;;;;;;5036985;28;20080;-82
2022/09/04 09:09:18;;;;;;;0.40;0.40;;;22.50;97.50;;;;;;5046307;28;20669;-82
2022/09/04 09:12:24;;;;;;;0.30;0.30;;;22.10;97.80;;;;;;4996852;28;20055;-84
2022/09/04 09:14:52;;;;;;;0.30;0.30;;;22.30;98.30;;;;;;5047793;28;20055;-82
2022/09/04 09:17:37;;;;;;;0.30;0.30;;;22.40;98.30;;;;;;5061567;28;20047;-84
2022/09/04 09:20:26;;;;;;;0.30;0.30;;;22.10;98.40;;;;;;5063433;28;20146;-83
2022/09/04 09:23:18;;;;;;;0.30;0.30;;;22.40;99.80;;;;;;5083849;28;20051;-84
2022/09/04 09:26:05;;;;;;;0.43;0.43;;;22.60;97.90;;;;;;5067667;28;20040;-83
2022/09/04 09:28:55;;;;;;;0.30;0.30;;;22.90;97.70;;;;;;5060658;28;20074;-82
2022/09/04 09:31:27;;;;;;;0.30;0.30;;;23.10;98.60;;;;;;5060248;28;20044;-85
2022/09/04 09:34:37;;;;;;;0.30;0.30;;;23.60;98.10;;;;;;5070541;28;20590;-83
2022/09/04 09:37:48;;;;;;;0.30;0.30;;;23.50;97.90;;;;;;5036612;28;20580;-82
2022/09/04 09:40:30;;;;;;;0.30;0.30;;;24.10;98.00;;;;;;4964045;28;20098;-83
2022/09/04 09:43:19;;;;;;;0.30;0.30;;;24.50;97.50;;;;;;5057767;28;20058;-83
2022/09/04 09:46:22;;;;;;;0.30;0.30;;;24.80;97.00;;;;;;5039969;28;20085;-82
2022/09/04 09:49:24;;;;;;;0.40;0.40;;;24.80;96.80;;;;;;5066852;28;20035;-83
2022/09/04 09:52:02;;;;;;;0.40;0.40;;;24.70;97.00;;;;;;5035433;28;20048;-83
2022/09/04 09:55:05;;;;;;;0.30;0.30;;;24.00;96.80;;;;;;5060832;28;20051;-83
2022/09/04 09:58:08;;;;;;;0.30;0.30;;;23.70;95.70;;;;;;5059029;28;20035;-83
2022/09/04 10:01:09;;;;;;;0.30;0.30;;;23.90;96.70;;;;;;5068599;28;20640;-84
2022/09/04 10:03:49;;;;;;;0.40;0.40;;;24.50;97.00;;;;;;5014922;28;20400;-82
2022/09/04 10:06:46;;;;;;;0.30;0.30;;;24.10;96.30;;;;;;5033062;28;20046;-83
2022/09/04 10:09:21;;;;;;;0.30;0.30;;;24.60;97.20;;;;;;5048569;28;20096;-83
2022/09/04 10:11:59;;;;;;;0.40;0.40;;;24.80;97.00;;;;;;5048736;28;20058;-84
2022/09/04 10:14:40;;;;;;;0.35;0.35;;;25.40;96.80;;;;;;5055938;28;20031;-81
2022/09/04 10:17:39;;;;;;;0.30;0.30;;;25.30;95.40;;;;;;5023992;28;20076;-83
2022/09/04 10:20:27;;;;;;;0.30;0.30;;;25.20;96.00;;;;;;5050496;28;20036;-81
2022/09/04 10:23:35;;;;;;;0.40;0.40;;;24.90;96.80;;;;;;5050632;28;20131;-82
2022/09/04 10:26:25;;;;;;;0.30;0.30;;;25.50;96.20;;;;;;5052149;28;20119;-84
2022/09/04 10:29:40;;;;;;;0.30;0.30;;;24.50;95.20;;;;;;5061017;28;20523;-82
2022/09/04 10:32:06;;;;;;;;;;;24.90;96.00;;;;;;5051737;28;20047;-81
2022/09/04 10:34:35;;;;;;;0.30;0.30;;;25.60;95.70;;;;;;5074912;28;20693;-82
2022/09/04 10:37:23;;;;;;;0.30;0.30;;;25.10;95.40;;;;;;5061074;28;20060;-82
2022/09/04 10:43:34;;;;;;;0.30;0.30;;;25.60;96.50;;;;;;5062070;28;20051;-82
2022/09/04 10:46:02;;;;;;;0.30;0.30;;;26.00;96.30;;;;;;5044456;28;20051;-85
2022/09/04 10:48:56;;;;;;;0.30;0.30;;;25.50;95.20;;;;;;5060930;28;20839;-82
2022/09/04 10:51:52;;;;;;;0.30;0.30;;;25.50;96.00;;;;;;5049384;28;20048;-84
2022/09/04 10:54:53;;;;;;;0.30;0.30;;;26.30;95.60;;;;;;5051212;28;20056;-84
2022/09/04 10:57:24;;;;;;;0.30;0.30;;;26.60;94.90;;;;;;5069371;28;20326;-84
2022/09/04 11:00:17;;;;;;;0.30;0.30;;;26.70;95.30;;;;;;5071822;28;20048;-84
2022/09/04 11:03:09;;;;;;;0.30;0.30;;;26.60;95.00;;;;;;5053064;28;20047;-83
2022/09/04 11:06:01;;;;;;;0.30;0.30;;;26.40;93.90;;;;;;5029161;28;20171;-83
2022/09/04 11:08:53;;;;;;;0.30;0.30;;;26.10;95.30;;;;;;5062185;28;20039;-85
2022/09/04 11:11:43;;;;;;;0.30;0.30;;;26.30;95.20;;;;;;5059207;28;20223;-85
2022/09/04 11:14:11;;;;;;;0.30;0.30;;;25.90;95.10;;;;;;5071011;28;20036;-82
2022/09/04 11:17:02;;;;;;;0.30;0.30;;;26.00;95.60;;;;;;5036161;28;20063;-83
2022/09/04 11:20:01;;;;;;;0.30;0.30;;;25.90;94.80;;;;;;5056155;28;20131;-84
2022/09/04 11:22:39;;;;;;;0.30;0.30;;;25.90;95.20;;;;;;5074334;28;20490;-86
2022/09/04 11:25:37;;;;;;;0.30;0.30;;;26.80;95.90;;;;;;5069877;28;20059;-83
2022/09/04 11:28:49;;;;;;;0.30;0.30;;;27.40;94.50;;;;;;5039741;28;20055;-86
2022/09/04 11:31:38;;;;;;;0.30;0.30;;;27.40;95.20;;;;;;5061444;28;20215;-83
2022/09/04 11:34:52;;;;;;;0.30;0.30;;;27.60;94.90;;;;;;5059333;28;20058;-84
2022/09/04 11:37:42;;;;;;;0.30;0.30;;;27.20;94.30;;;;;;5051299;28;20071;-84
2022/09/04 11:40:17;;;;;;;0.20;0.20;;;27.20;94.80;;;;;;5061231;28;20488;-83
2022/09/04 11:43:14;;;;;;;0.30;0.30;;;27.40;94.70;;;;;;5057039;28;20582;-84
2022/09/04 11:46:16;;;;;;;0.30;0.30;;;27.80;94.80;;;;;;5052840;28;20065;-84
2022/09/04 11:49:08;;;;;;;0.30;0.30;;;28.10;94.30;;;;;;4962959;28;20760;-82
2022/09/04 11:51:52;;;;;;;0.30;0.30;;;27.40;94.50;;;;;;5068683;28;20074;-84
2022/09/04 11:54:30;;;;;;;0.30;0.30;;;26.60;95.00;;;;;;5060903;28;20039;-82
2022/09/04 11:57:10;;;;;;;0.30;0.30;;;27.00;94.60;;;;;;5055519;28;20503;-85
2022/09/04 11:59:45;;;;;;;0.30;0.30;;;27.30;93.90;;;;;;5060487;28;20066;-84
2022/09/04 12:02:48;;;;;;;0.30;0.30;;;26.60;95.00;;;;;;5057878;28;20040;-83
2022/09/04 12:05:51;;;;;;;0.30;0.30;;;26.60;94.90;;;;;;5068451;28;20400;-81
2022/09/04 12:09:01;;;;;;;0.20;0.20;;;26.60;93.40;;;;;;5056011;28;20035;-82
2022/09/04 12:11:45;;;;;;;0.30;0.30;;;26.90;93.80;;;;;;4985971;28;20131;-81
2022/09/04 12:14:28;;;;;;;0.40;0.40;;;26.90;93.70;;;;;;4987505;28;20077;-82
2022/09/04 12:17:24;;;;;;;0.30;0.30;;;27.00;94.80;;;;;;5025498;28;20051;-84
2022/09/04 12:19:59;;;;;;;0.35;0.35;;;27.60;94.50;;;;;;5009883;28;20523;-83
2022/09/04 12:23:02;;;;;;;0.30;0.30;;;27.40;94.40;;;;;;5068435;28;20051;-82
2022/09/04 12:25:56;;;;;;;0.30;0.30;;;26.80;93.50;;;;;;5043365;28;20066;-83
2022/09/04 12:28:53;;;;;;;0.30;0.30;;;27.10;93.50;;;;;;5045910;28;20048;-83
2022/09/04 12:31:50;;;;;;;0.30;0.30;;;27.20;94.20;;;;;;5063630;28;20158;-83
2022/09/04 12:34:53;;;;;;;0.40;0.40;;;27.70;94.20;;;;;;5056057;28;20048;-83
2022/09/04 12:37:48;;;;;;;0.30;0.30;;;28.40;94.50;;;;;;5055386;28;20048;-82
2022/09/04 12:40:20;;;;;;;0.30;0.30;;;28.50;93.60;;;;;;5016830;28;20116;-81
2022/09/04 12:42:58;;;;;;;0.30;0.30;;;28.30;93.40;;;;;;5060397;28;20075;-81
2022/09/04 12:45:53;;;;;;;0.30;0.30;;;28.70;93.60;;;;;;5043651;28;20261;-83
2022/09/04 12:48:44;;;;;;;0.28;0.28;;;27.90;93.00;;;;;;5060737;28;20039;-83
2022/09/04 12:51:20;;;;;;;0.30;0.30;;;28.10;93.80;;;;;;5052351;28;20054;-85
2022/09/04 12:54:30;;;;;;;0.30;0.30;;;28.60;93.70;;;;;;5066071;28;20119;-81
2022/09/04 12:57:21;;;;;;;0.30;0.30;;;28.60;92.90;;;;;;4953538;28;20050;-81
2022/09/04 13:00:11;;;;;;;0.30;0.30;;;28.30;92.90;;;;;;5044475;28;20047;-81
2022/09/04 13:02:43;;;;;;;0.20;0.20;;;28.00;92.90;;;;;;5051771;28;20107;-83
2022/09/04 13:05:34;;;;;;;0.30;0.30;;;27.70;93.70;;;;;;5059563;28;20075;-84
2022/09/04 13:08:25;;;;;;;0.30;0.30;;;27.00;92.70;;;;;;5045256;28;20071;-83
2022/09/04 13:11:29;;;;;;;0.30;0.30;;;26.90;93.90;;;;;;5044361;28;20056;-84
2022/09/04 13:13:58;;;;;;;0.30;0.30;;;26.80;94.40;;;;;;5046290;28;21093;-83
2022/09/04 13:16:26;;;;;;;0.30;0.30;;;26.80;94.00;;;;;;5056721;28;20063;-86
2022/09/04 13:18:59;;;;;;;0.30;0.30;;;27.30;94.30;;;;;;5043593;28;20059;-82
2022/09/04 13:21:42;;;;;;;0.25;0.25;;;27.80;94.40;;;;;;5045599;28;20063;-83
2022/09/04 13:24:26;;;;;;;0.30;0.30;;;28.30;93.80;;;;;;5064126;28;20120;-85
2022/09/04 13:27:25;;;;;;;0.30;0.30;;;28.90;94.50;;;;;;5068250;28;20750;-82
2022/09/04 13:30:14;;;;;;;0.25;0.25;;;28.70;94.00;;;;;;5016353;28;20174;-85
2022/09/04 13:33:11;;;;;;;0.30;0.30;;;28.70;93.40;;;;;;5067540;28;20058;-81
2022/09/04 13:36:09;;;;;;;0.20;0.20;;;28.80;93.70;;;;;;5063646;28;20056;-84
2022/09/04 13:38:40;;;;;;;0.20;0.20;;;27.90;92.90;;;;;;5069997;28;20289;-87
2022/09/04 13:41:21;;;;;;;0.22;0.22;;;27.90;92.90;;;;;;5051369;28;20558;-85
2022/09/04 13:44:04;;;;;;;0.30;0.30;;;28.10;93.10;;;;;;5047494;28;20558;-83
2022/09/04 13:46:45;;;;;;;0.30;0.30;;;28.50;93.00;;;;;;5046915;28;20043;-83
2022/09/04 13:49:25;;;;;;;0.30;0.30;;;28.70;92.60;;;;;;5068300;28;20097;-82
2022/09/04 13:52:05;;;;;;;0.30;0.30;;;28.40;93.20;;;;;;5062341;28;20035;-83
2022/09/04 13:54:38;;;;;;;0.30;0.30;;;28.10;93.20;;;;;;5064572;28;20158;-83
2022/09/04 13:57:56;;;;;;;0.30;0.30;;;28.40;92.60;;;;;;5066356;28;20925;-82
2022/09/04 14:00:23;;;;;;;0.30;0.30;;;27.70;92.60;;;;;;5064212;28;21033;-84
2022/09/04 14:02:55;;;;;;;0.30;0.30;;;27.80;93.60;;;;;;5065916;28;20051;-83
2022/09/04 14:05:24;;;;;;;0.30;0.30;;;28.30;93.40;;;;;;5056614;28;20047;-83
2022/09/04 14:08:02;;;;;;;0.30;0.30;;;28.10;93.30;;;;;;5063080;28;20078;-85
2022/09/04 14:11:07;;;;;;;0.30;0.30;;;27.50;92.10;;;;;;5050162;28;20732;-86
2022/09/04 14:13:54;;;;;;;0.30;0.30;;;27.40;93.50;;;;;;5067720;28;20074;-82
2022/09/04 14:16:22;;;;;;;0.30;0.30;;;27.10;92.70;;;;;;5050342;28;20056;-82
2022/09/04 14:18:51;;;;;;;0.20;0.20;;;27.20;93.80;;;;;;5056360;28;20738;-83
2022/09/04 14:21:47;;;;;;;0.30;0.30;;;27.30;93.40;;;;;;5049582;28;20043;-83
2022/09/04 14:24:16;;;;;;;0.30;0.30;;;27.60;93.00;;;;;;5046287;28;20044;-83
2022/09/04 14:26:54;;;;;;;0.30;0.30;;;27.60;92.90;;;;;;5039006;28;20087;-82
2022/09/04 14:29:35;;;;;;;0.30;0.30;;;27.40;93.10;;;;;;5052798;28;20363;-82
2022/09/04 14:32:17;;;;;;;0.30;0.30;;;27.00;92.60;;;;;;5031222;28;20052;-82
2022/09/04 14:34:49;;;;;;;0.30;0.30;;;26.80;92.60;;;;;;5072472;28;20047;-82
2022/09/04 14:37:27;;;;;;;0.30;0.30;;;26.80;92.90;;;;;;5074528;28;20139;-83